createdAt,value
2023-02-13T00:00:35.254Z,13.20
2023-02-13T00:03:02.409Z,11.97
2023-02-13T00:05:29.613Z,13.33
2023-02-13T00:07:57.349Z,13.00
2023-02-13T00:10:24.402Z,12.70
2023-02-13T00:12:53.903Z,12.47
2023-02-13T00:15:20.921Z,11.67
2023-02-13T00:17:47.921Z,12.03
2023-02-13T00:20:14.759Z,12.27
2023-02-13T00:22:41.745Z,11.93
2023-02-13T00:25:09.294Z,13.13
2023-02-13T00:27:36.399Z,13.30
2023-02-13T00:30:05.019Z,13.03
2023-02-13T00:32:32.110Z,12.97
2023-02-13T00:34:59.148Z,13.17
2023-02-13T00:37:26.726Z,14.03
2023-02-13T00:39:54.140Z,12.73
2023-02-13T00:42:24.290Z,14.67
2023-02-13T00:44:51.262Z,14.00
2023-02-13T00:47:18.489Z,13.67
2023-02-13T00:49:45.910Z,14.00
2023-02-13T00:52:13.616Z,14.17
2023-02-13T00:54:40.786Z,13.70
2023-02-13T00:57:07.575Z,13.67
2023-02-13T00:59:34.600Z,13.90
2023-02-13T01:02:01.581Z,13.27
2023-02-13T01:04:28.542Z,14.03
2023-02-13T01:06:55.523Z,12.93
2023-02-13T01:09:22.520Z,13.50
2023-02-13T01:11:49.431Z,14.27
2023-02-13T01:14:16.576Z,14.43
2023-02-13T01:16:43.595Z,13.90
2023-02-13T01:19:10.393Z,14.93
2023-02-13T01:21:37.585Z,14.60
2023-02-13T01:24:05.603Z,13.63
2023-02-13T01:26:32.630Z,14.40
2023-02-13T01:28:59.613Z,14.33
2023-02-13T01:31:27.014Z,14.80
2023-02-13T01:33:57.627Z,13.83
2023-02-13T01:36:25.521Z,14.13
2023-02-13T01:38:57.666Z,13.73
2023-02-13T01:41:26.658Z,12.97
2023-02-13T01:43:59.304Z,13.57
2023-02-13T01:46:39.028Z,14.40
2023-02-13T01:49:15.105Z,13.90
2023-02-13T01:51:43.730Z,14.73
2023-02-13T01:54:18.673Z,14.00
2023-02-13T01:56:58.663Z,14.20
2023-02-13T01:59:29.973Z,14.40
2023-02-13T02:01:58.466Z,14.10
2023-02-13T02:04:44.615Z,13.83
2023-02-13T02:07:18.198Z,13.90
2023-02-13T02:09:45.901Z,13.93
2023-02-13T02:12:26.609Z,15.37
2023-02-13T02:14:55.957Z,14.70
2023-02-13T02:17:24.832Z,15.00
2023-02-13T02:20:18.323Z,13.60
2023-02-13T02:22:57.657Z,13.13
2023-02-13T02:25:53.848Z,13.83
2023-02-13T02:28:29.357Z,13.60
2023-02-13T02:31:17.943Z,12.47
2023-02-13T02:33:49.871Z,12.50
2023-02-13T02:36:46.935Z,12.97
2023-02-13T02:39:30.494Z,14.07
2023-02-13T02:42:09.658Z,13.53
2023-02-13T02:44:54.834Z,13.57
2023-02-13T02:47:50.839Z,12.73
2023-02-13T02:50:45.345Z,12.97
2023-02-13T02:53:24.347Z,13.20
2023-02-13T02:56:18.380Z,12.73
2023-02-13T02:59:16.000Z,13.30
2023-02-13T03:02:03.454Z,13.50
2023-02-13T03:04:58.882Z,12.93
2023-02-13T03:07:28.404Z,12.83
2023-02-13T03:10:18.577Z,12.57
2023-02-13T03:13:15.326Z,13.77
2023-02-13T03:16:04.036Z,13.10
2023-02-13T03:18:54.282Z,13.03
2023-02-13T03:22:11.657Z,13.43
2023-02-13T03:25:19.171Z,14.23
2023-02-13T03:28:56.114Z,12.47
2023-02-13T03:31:44.660Z,12.97
2023-02-13T03:34:23.243Z,12.67
2023-02-13T03:37:11.336Z,13.50
2023-02-13T03:39:54.755Z,14.07
2023-02-13T03:42:32.158Z,13.37
2023-02-13T03:45:27.895Z,13.07
2023-02-13T03:47:58.379Z,12.87
2023-02-13T03:50:28.355Z,13.13
2023-02-13T03:53:08.436Z,12.13
2023-02-13T03:55:59.735Z,13.73
2023-02-13T03:58:53.276Z,12.33
2023-02-13T04:01:24.234Z,12.23
2023-02-13T04:03:59.671Z,12.93
2023-02-13T04:06:32.728Z,13.50
2023-02-13T04:08:59.678Z,13.80
2023-02-13T04:11:37.759Z,13.40
2023-02-13T04:14:28.556Z,13.83
2023-02-13T04:17:05.476Z,12.93
2023-02-13T04:19:34.090Z,14.00
2023-02-13T04:22:02.950Z,13.40
2023-02-13T04:24:30.207Z,13.40
2023-02-13T04:26:57.878Z,13.53
2023-02-13T04:29:26.923Z,13.67
2023-02-13T04:31:53.907Z,18.90
2023-02-13T04:34:21.045Z,19.50
2023-02-13T04:36:47.990Z,17.67
2023-02-13T04:39:14.960Z,15.07
2023-02-13T04:41:41.962Z,17.13
2023-02-13T04:44:09.138Z,19.03
2023-02-13T04:46:36.006Z,18.47
2023-02-13T04:49:02.943Z,16.27
2023-02-13T04:51:30.142Z,15.53
2023-02-13T04:53:56.937Z,14.93
2023-02-13T04:56:24.103Z,14.17
2023-02-13T04:58:50.983Z,15.27
2023-02-13T05:01:18.701Z,14.33
2023-02-13T05:03:45.793Z,14.03
2023-02-13T05:06:15.168Z,14.13
2023-02-13T05:08:41.935Z,14.53
2023-02-13T05:11:09.071Z,13.67
2023-02-13T05:13:36.054Z,13.90
2023-02-13T05:16:03.224Z,14.03
2023-02-13T05:18:33.323Z,13.47
2023-02-13T05:21:18.476Z,13.97
2023-02-13T05:23:45.406Z,14.47
2023-02-13T05:26:15.190Z,13.83
2023-02-13T05:29:00.908Z,13.60
2023-02-13T05:31:27.839Z,12.83
2023-02-13T05:33:54.851Z,14.07
2023-02-13T05:36:21.898Z,14.13
2023-02-13T05:38:48.703Z,13.87
2023-02-13T05:41:15.717Z,13.47
2023-02-13T05:43:42.894Z,14.07
2023-02-13T05:46:10.713Z,13.43
2023-02-13T05:48:37.746Z,13.80
2023-02-13T05:51:05.170Z,13.60
2023-02-13T05:53:35.486Z,13.77
2023-02-13T05:56:03.903Z,13.17
2023-02-13T05:58:30.988Z,14.00
2023-02-13T06:00:59.387Z,14.17
2023-02-13T06:03:28.029Z,14.67
2023-02-13T06:05:55.810Z,13.57
2023-02-13T06:08:23.568Z,12.63
2023-02-13T06:10:51.269Z,13.53
2023-02-13T06:13:18.716Z,13.27
2023-02-13T06:15:46.146Z,14.87
2023-02-13T06:18:13.211Z,14.53
2023-02-13T06:20:40.018Z,15.43
2023-02-13T06:23:07.144Z,16.50
2023-02-13T06:25:36.535Z,15.00
2023-02-13T06:28:05.070Z,15.83
2023-02-13T06:30:32.936Z,15.13
2023-02-13T06:33:00.351Z,16.53
2023-02-13T06:35:28.156Z,15.73
2023-02-13T06:37:55.092Z,16.67
2023-02-13T06:40:22.159Z,16.00
2023-02-13T06:42:49.241Z,13.97
2023-02-13T06:45:16.533Z,14.57
2023-02-13T06:47:45.282Z,14.67
2023-02-13T06:50:14.044Z,15.03
2023-02-13T06:52:46.558Z,14.50
2023-02-13T06:55:14.191Z,14.67
2023-02-13T06:57:42.322Z,14.07
2023-02-13T07:00:13.394Z,15.03
2023-02-13T07:02:41.993Z,15.10
2023-02-13T07:05:09.576Z,15.83
2023-02-13T07:07:42.422Z,14.47
2023-02-13T07:10:12.920Z,16.30
2023-02-13T07:12:40.050Z,15.30
2023-02-13T07:15:08.397Z,14.47
2023-02-13T07:17:35.343Z,13.83
2023-02-13T07:20:06.297Z,14.47
2023-02-13T07:22:33.630Z,13.83
2023-02-13T07:25:01.612Z,13.53
2023-02-13T07:27:31.681Z,14.80
2023-02-13T07:29:58.721Z,14.53
2023-02-13T07:32:31.134Z,15.13
2023-02-13T07:35:02.083Z,15.47
2023-02-13T07:37:31.277Z,15.00
2023-02-13T07:39:58.504Z,14.83
2023-02-13T07:42:25.451Z,16.00
2023-02-13T07:44:52.670Z,15.27
2023-02-13T07:47:20.333Z,15.43
2023-02-13T07:49:47.440Z,15.63
2023-02-13T07:52:17.652Z,15.47
2023-02-13T07:54:47.973Z,16.17
2023-02-13T07:57:16.369Z,15.13
2023-02-13T07:59:43.541Z,15.00
2023-02-13T08:02:13.651Z,14.03
2023-02-13T08:04:41.415Z,15.20
2023-02-13T08:07:08.287Z,15.33
2023-02-13T08:09:54.001Z,14.50
2023-02-13T08:12:23.740Z,14.47
2023-02-13T08:14:50.573Z,15.23
2023-02-13T08:17:17.397Z,15.13
2023-02-13T08:19:44.348Z,14.97
2023-02-13T08:22:11.510Z,15.10
2023-02-13T08:24:38.388Z,15.03
2023-02-13T08:27:05.223Z,15.77
2023-02-13T08:29:32.243Z,16.03
2023-02-13T08:31:59.272Z,16.10
2023-02-13T08:34:26.329Z,15.47
2023-02-13T08:36:53.096Z,15.63
2023-02-13T08:39:20.167Z,16.77
2023-02-13T08:41:47.045Z,16.07
2023-02-13T08:44:14.328Z,17.00
2023-02-13T08:46:41.330Z,16.73
2023-02-13T08:49:09.994Z,16.67
2023-02-13T08:51:37.025Z,16.20
2023-02-13T08:54:03.935Z,14.77
2023-02-13T08:56:30.887Z,15.07
2023-02-13T08:58:57.897Z,16.07
2023-02-13T09:01:25.015Z,15.67
2023-02-13T09:03:52.215Z,16.13
2023-02-13T09:06:19.000Z,17.03
2023-02-13T09:08:46.065Z,15.27
2023-02-13T09:11:14.013Z,16.40
2023-02-13T09:13:41.072Z,16.97
2023-02-13T09:16:07.982Z,15.93
2023-02-13T09:18:35.669Z,16.57
2023-02-13T09:21:06.631Z,16.90
2023-02-13T09:23:36.114Z,17.60
2023-02-13T09:26:05.325Z,17.97
2023-02-13T09:28:34.901Z,16.40
2023-02-13T09:31:15.591Z,17.20
2023-02-13T09:33:43.497Z,18.53
2023-02-13T09:36:14.844Z,17.50
2023-02-13T09:38:45.441Z,16.57
2023-02-13T09:41:20.074Z,17.83
2023-02-13T09:43:55.410Z,16.30
2023-02-13T09:46:27.483Z,17.20
2023-02-13T09:48:57.856Z,16.20
2023-02-13T09:51:26.439Z,16.30
2023-02-13T09:54:16.941Z,15.90
2023-02-13T09:56:50.370Z,16.17
2023-02-13T09:59:46.234Z,15.83
2023-02-13T10:02:52.016Z,15.80
2023-02-13T10:05:58.069Z,15.80
2023-02-13T10:08:55.284Z,16.33
2023-02-13T10:11:43.769Z,16.70
2023-02-13T10:14:43.462Z,16.13
2023-02-13T10:17:35.731Z,15.57
2023-02-13T10:20:27.410Z,15.50
2023-02-13T10:23:03.480Z,15.50
2023-02-13T10:25:45.193Z,16.60
2023-02-13T10:28:22.057Z,16.77
2023-02-13T10:30:57.041Z,15.23
2023-02-13T10:33:35.118Z,16.67
2023-02-13T10:36:07.227Z,15.70
2023-02-13T10:38:38.713Z,16.10
2023-02-13T10:41:33.124Z,15.67
2023-02-13T10:44:29.946Z,15.60
2023-02-13T10:47:23.939Z,15.20
2023-02-13T10:50:22.420Z,15.93
2023-02-13T10:52:57.665Z,16.67
2023-02-13T10:55:46.476Z,16.33
2023-02-13T10:58:32.053Z,16.43
2023-02-13T11:01:07.818Z,16.63
2023-02-13T11:03:34.668Z,16.80
2023-02-13T11:06:07.877Z,16.93
2023-02-13T11:08:47.856Z,16.33
2023-02-13T11:11:34.315Z,16.53
2023-02-13T11:14:22.681Z,15.50
2023-02-13T11:17:02.462Z,15.13
2023-02-13T11:19:39.428Z,15.07
2023-02-13T11:22:13.778Z,14.93
2023-02-13T11:24:43.136Z,14.33
2023-02-13T11:27:14.107Z,14.90
2023-02-13T11:29:57.113Z,14.37
2023-02-13T11:32:26.659Z,13.73
2023-02-13T11:34:55.142Z,15.23
2023-02-13T11:37:25.280Z,13.70
2023-02-13T11:39:57.837Z,13.30
2023-02-13T11:42:36.253Z,23.70
2023-02-13T11:45:07.889Z,16.70
2023-02-13T11:47:41.151Z,15.40
2023-02-13T11:50:36.371Z,15.10
2023-02-13T11:53:07.826Z,14.70
2023-02-13T11:55:38.405Z,13.43
2023-02-13T11:58:11.139Z,15.63
2023-02-13T12:00:41.833Z,14.33
2023-02-13T12:03:29.255Z,15.13
2023-02-13T12:06:11.264Z,14.53
2023-02-13T12:08:40.458Z,15.20
2023-02-13T12:11:25.656Z,14.13
2023-02-13T12:13:53.235Z,15.57
2023-02-13T12:16:38.794Z,14.97
2023-02-13T12:19:11.343Z,14.27
2023-02-13T12:22:19.690Z,14.20
2023-02-13T12:25:02.919Z,15.67
2023-02-13T12:27:59.406Z,13.97
2023-02-13T12:30:41.290Z,24.20
2023-02-13T12:33:26.070Z,23.80
2023-02-13T12:36:11.058Z,16.80
2023-02-13T12:38:37.846Z,17.27
2023-02-13T12:41:27.401Z,18.27
2023-02-13T12:44:07.732Z,15.37
2023-02-13T12:47:03.855Z,17.20
2023-02-13T12:49:52.917Z,15.77
2023-02-13T12:52:38.419Z,14.87
2023-02-13T12:55:23.064Z,16.33
2023-02-13T12:58:11.660Z,15.73
2023-02-13T13:01:27.178Z,16.93
2023-02-13T13:04:37.412Z,15.03
2023-02-13T13:07:45.996Z,15.53
2023-02-13T13:10:38.465Z,14.37
2023-02-13T13:13:25.524Z,14.77
2023-02-13T13:16:00.013Z,14.97
2023-02-13T13:18:32.597Z,14.00
2023-02-13T13:21:14.113Z,14.47
2023-02-13T13:23:50.733Z,14.37
2023-02-13T13:26:32.176Z,15.27
2023-02-13T13:29:01.722Z,14.77
2023-02-13T13:31:29.268Z,15.10
2023-02-13T13:34:02.317Z,14.30
2023-02-13T13:36:46.671Z,15.50
2023-02-13T13:39:41.496Z,16.67
2023-02-13T13:42:34.478Z,13.93
2023-02-13T13:45:31.555Z,15.03
2023-02-13T13:48:18.771Z,14.10
2023-02-13T13:50:47.075Z,14.67
2023-02-13T13:53:26.037Z,14.83
2023-02-13T13:55:58.755Z,14.23
2023-02-13T13:58:44.002Z,15.10
2023-02-13T14:01:23.432Z,14.93
2023-02-13T14:04:20.414Z,15.00
2023-02-13T14:07:15.653Z,14.37
2023-02-13T14:09:44.148Z,14.20
2023-02-13T14:12:28.680Z,14.20
2023-02-13T14:14:57.428Z,14.77
2023-02-13T14:17:44.522Z,13.47
2023-02-13T14:20:33.555Z,13.63
2023-02-13T14:24:00.821Z,13.67
2023-02-13T14:26:32.466Z,14.80
2023-02-13T14:29:17.349Z,13.40
2023-02-13T14:31:57.445Z,14.27
2023-02-13T14:34:34.091Z,14.80
2023-02-13T14:37:21.185Z,14.63
2023-02-13T14:40:28.053Z,15.40
2023-02-13T14:42:58.844Z,16.30
2023-02-13T14:45:33.852Z,17.97
2023-02-13T14:48:07.793Z,16.60
2023-02-13T14:50:53.331Z,17.20
2023-02-13T14:53:41.927Z,15.60
2023-02-13T14:56:15.072Z,13.87
2023-02-13T14:59:11.291Z,14.27
2023-02-13T15:01:47.298Z,14.87
2023-02-13T15:04:39.409Z,13.83
2023-02-13T15:07:13.658Z,14.00
2023-02-13T15:09:45.568Z,12.77
2023-02-13T15:12:34.971Z,13.27
2023-02-13T15:15:17.764Z,13.90
2023-02-13T15:17:45.112Z,13.13
2023-02-13T15:20:20.722Z,12.67
2023-02-13T15:22:48.270Z,14.17
2023-02-13T15:25:32.586Z,13.87
2023-02-13T15:28:00.408Z,14.00
2023-02-13T15:30:31.161Z,14.00
2023-02-13T15:33:03.842Z,14.47
2023-02-13T15:35:37.760Z,16.97
2023-02-13T15:38:32.620Z,17.47
2023-02-13T15:41:10.726Z,19.03
2023-02-13T15:43:50.566Z,17.93
2023-02-13T15:46:28.563Z,15.80
2023-02-13T15:48:59.261Z,16.10
2023-02-13T15:51:31.108Z,16.60
2023-02-13T15:54:04.598Z,15.17
2023-02-13T15:56:32.009Z,14.50
2023-02-13T15:59:01.133Z,15.70
2023-02-13T16:01:29.074Z,14.90
2023-02-13T16:04:09.166Z,14.87
2023-02-13T16:06:36.519Z,15.00
2023-02-13T16:09:04.175Z,14.43
2023-02-13T16:11:44.239Z,15.10
2023-02-13T16:14:28.306Z,14.63
2023-02-13T16:16:59.294Z,14.73
2023-02-13T16:19:40.018Z,14.17
2023-02-13T16:22:15.686Z,14.60
2023-02-13T16:24:51.205Z,14.77
2023-02-13T16:27:21.601Z,14.43
2023-02-13T16:29:58.026Z,14.07
2023-02-13T16:32:33.404Z,14.90
2023-02-13T16:35:30.827Z,14.37
2023-02-13T16:38:02.776Z,15.50
2023-02-13T16:40:33.927Z,14.03
2023-02-13T16:43:38.014Z,14.27
2023-02-13T16:46:19.189Z,14.37
2023-02-13T16:49:08.044Z,14.17
2023-02-13T16:51:40.035Z,14.10
2023-02-13T16:54:18.596Z,14.10
2023-02-13T16:56:51.296Z,14.03
2023-02-13T16:59:29.436Z,14.57
2023-02-13T17:02:15.213Z,14.37
2023-02-13T17:04:50.788Z,14.10
2023-02-13T17:07:31.889Z,14.33
2023-02-13T17:10:07.852Z,13.07
2023-02-13T17:12:41.682Z,13.83
2023-02-13T17:15:13.913Z,14.50
2023-02-13T17:17:41.360Z,15.23
2023-02-13T17:20:15.392Z,15.10
2023-02-13T17:22:46.070Z,15.13
2023-02-13T17:25:27.195Z,16.67
2023-02-13T17:27:57.799Z,14.00
2023-02-13T17:30:28.360Z,14.77
2023-02-13T17:33:03.735Z,15.93
2023-02-13T17:35:31.501Z,14.53
2023-02-13T17:37:59.072Z,14.93
2023-02-13T17:40:29.694Z,15.13
2023-02-13T17:42:57.849Z,15.50
2023-02-13T17:45:27.475Z,16.50
2023-02-13T17:47:55.185Z,16.20
2023-02-13T17:50:22.649Z,16.63
2023-02-13T17:52:49.998Z,17.13
2023-02-13T17:55:22.399Z,16.50
2023-02-13T17:57:49.525Z,16.10
2023-02-13T18:00:17.194Z,16.27
2023-02-13T18:02:44.516Z,17.17
2023-02-13T18:05:11.570Z,16.77
2023-02-13T18:07:41.744Z,16.47
2023-02-13T18:10:17.171Z,16.30
2023-02-13T18:12:45.417Z,16.77
2023-02-13T18:15:13.044Z,17.87
2023-02-13T18:17:41.164Z,15.90
2023-02-13T18:20:11.178Z,16.43
2023-02-13T18:22:38.113Z,17.80
2023-02-13T18:25:06.081Z,17.20
2023-02-13T18:27:33.042Z,16.77
2023-02-13T18:30:00.094Z,18.50
2023-02-13T18:32:27.286Z,16.87
2023-02-13T18:34:54.580Z,20.97
2023-02-13T18:37:21.698Z,19.90
2023-02-13T18:39:48.696Z,19.23
2023-02-13T18:42:15.643Z,18.00
2023-02-13T18:44:42.595Z,18.40
2023-02-13T18:47:09.449Z,18.33
2023-02-13T18:49:37.028Z,17.93
2023-02-13T18:52:04.685Z,17.43
2023-02-13T18:54:32.027Z,17.60
2023-02-13T18:56:58.920Z,17.77
2023-02-13T18:59:27.275Z,16.50
2023-02-13T19:01:54.156Z,17.77
2023-02-13T19:04:21.441Z,18.93
2023-02-13T19:06:48.756Z,18.87
2023-02-13T19:09:15.665Z,19.33
2023-02-13T19:11:44.620Z,19.10
2023-02-13T19:14:13.933Z,17.57
2023-02-13T19:16:41.673Z,19.47
2023-02-13T19:19:09.110Z,17.77
2023-02-13T19:21:38.436Z,18.60
2023-02-13T19:24:08.978Z,19.30
2023-02-13T19:26:36.696Z,20.37
2023-02-13T19:29:04.462Z,20.93
2023-02-13T19:31:33.310Z,20.07
2023-02-13T19:34:05.837Z,19.03
2023-02-13T19:36:33.023Z,20.83
2023-02-13T19:39:05.654Z,23.53
2023-02-13T19:41:33.253Z,19.90
2023-02-13T19:44:01.196Z,22.67
2023-02-13T19:46:31.122Z,22.17
2023-02-13T19:49:01.685Z,21.30
2023-02-13T19:51:30.756Z,21.60
2023-02-13T19:54:00.498Z,22.50
2023-02-13T19:56:28.865Z,20.83
2023-02-13T19:58:56.173Z,25.27
2023-02-13T20:01:25.467Z,24.50
2023-02-13T20:03:55.717Z,20.73
2023-02-13T20:06:35.997Z,22.70
2023-02-13T20:09:07.540Z,21.93
2023-02-13T20:11:34.645Z,22.70
2023-02-13T20:14:01.453Z,23.27
2023-02-13T20:16:33.256Z,23.57
2023-02-13T20:19:03.498Z,23.07
2023-02-13T20:21:34.178Z,25.27
2023-02-13T20:24:01.772Z,24.17
2023-02-13T20:26:29.574Z,24.20
2023-02-13T20:28:59.069Z,23.27
2023-02-13T20:31:27.480Z,21.20
2023-02-13T20:33:54.441Z,20.10
2023-02-13T20:36:30.746Z,21.43
2023-02-13T20:39:00.162Z,19.50
2023-02-13T20:41:29.731Z,20.50
2023-02-13T20:44:05.627Z,21.73
2023-02-13T20:46:37.397Z,20.20
2023-02-13T20:49:05.465Z,20.93
2023-02-13T20:51:32.412Z,20.03
2023-02-13T20:54:00.533Z,21.40
2023-02-13T20:56:28.612Z,21.60
2023-02-13T20:58:57.726Z,22.10
2023-02-13T21:01:37.563Z,21.47
2023-02-13T21:04:04.548Z,20.20
2023-02-13T21:06:35.173Z,21.30
2023-02-13T21:09:02.938Z,21.73
2023-02-13T21:11:30.234Z,19.93
2023-02-13T21:13:58.224Z,21.83
2023-02-13T21:16:27.591Z,22.07
2023-02-13T21:18:57.066Z,20.63
2023-02-13T21:21:26.633Z,20.47
2023-02-13T21:23:57.748Z,22.10
2023-02-13T21:26:25.332Z,20.47
2023-02-13T21:28:52.817Z,20.33
2023-02-13T21:31:28.030Z,21.23
2023-02-13T21:34:03.287Z,19.57
2023-02-13T21:36:31.592Z,20.13
2023-02-13T21:38:59.017Z,20.50
2023-02-13T21:41:26.089Z,20.60
2023-02-13T21:43:53.319Z,20.33
2023-02-13T21:46:28.937Z,21.97
2023-02-13T21:49:02.290Z,21.10
2023-02-13T21:51:31.671Z,19.97
2023-02-13T21:54:02.167Z,21.13
2023-02-13T21:56:35.571Z,21.93
2023-02-13T21:59:05.713Z,20.73
2023-02-13T22:01:35.887Z,20.13
2023-02-13T22:04:08.272Z,20.43
2023-02-13T22:06:38.572Z,20.23
2023-02-13T22:09:11.962Z,20.53
2023-02-13T22:11:39.461Z,20.17
2023-02-13T22:14:08.172Z,19.87
2023-02-13T22:16:37.594Z,19.70
2023-02-13T22:19:05.936Z,20.07
2023-02-13T22:21:34.498Z,19.40
2023-02-13T22:24:02.137Z,19.67
2023-02-13T22:26:34.749Z,20.30
2023-02-13T22:29:05.282Z,20.03
2023-02-13T22:31:32.550Z,20.00
2023-02-13T22:34:03.754Z,20.27
2023-02-13T22:36:35.527Z,20.47
2023-02-13T22:39:02.379Z,20.27
2023-02-13T22:41:29.852Z,19.93
2023-02-13T22:43:57.235Z,19.57
2023-02-13T22:46:29.708Z,19.57
2023-02-13T22:48:57.116Z,18.77
2023-02-13T22:51:27.583Z,19.23
2023-02-13T22:53:56.015Z,20.40
2023-02-13T22:56:24.242Z,19.17
2023-02-13T22:58:51.245Z,17.90
2023-02-13T23:01:20.388Z,19.60
2023-02-13T23:03:47.935Z,20.83
2023-02-13T23:06:15.753Z,19.23
2023-02-13T23:08:43.551Z,19.93
2023-02-13T23:11:34.203Z,19.50
2023-02-13T23:14:01.995Z,18.50
2023-02-13T23:16:49.215Z,18.97
2023-02-13T23:19:16.266Z,18.73
2023-02-13T23:21:43.289Z,18.90
2023-02-13T23:24:10.979Z,18.77
2023-02-13T23:26:37.903Z,18.57
2023-02-13T23:29:05.050Z,19.07
2023-02-13T23:31:32.159Z,18.60
2023-02-13T23:34:03.123Z,20.43
2023-02-13T23:36:30.035Z,18.57
2023-02-13T23:38:56.982Z,18.70
2023-02-13T23:41:23.935Z,20.33
2023-02-13T23:43:50.987Z,19.67
2023-02-13T23:46:17.851Z,19.27
2023-02-13T23:48:46.163Z,18.93
2023-02-13T23:51:13.142Z,19.90
2023-02-13T23:53:40.239Z,19.50
2023-02-13T23:56:07.683Z,19.87
2023-02-13T23:58:35.880Z,20.17
